createdAt,value
2023-01-22T00:04:13.009Z,147.30033
2023-01-22T00:09:14.722Z,147.30033
2023-01-22T00:14:16.688Z,144
2023-01-22T00:19:18.155Z,153.52381
2023-01-22T00:24:19.724Z,158.63415
2023-01-22T00:29:21.209Z,156.41379
2023-01-22T00:34:22.765Z,144.65147
2023-01-22T00:39:24.689Z,144
2023-01-22T00:44:26.501Z,145.30719
2023-01-22T00:49:28.074Z,140.17834
2023-01-22T00:54:29.671Z,137.71069
2023-01-22T00:59:31.179Z,147.97351
2023-01-22T01:04:32.735Z,151.40741
2023-01-22T01:09:34.453Z,151.40741
2023-01-22T01:14:36.119Z,157.14879
2023-01-22T01:19:37.613Z,157.14879
2023-01-22T01:24:39.088Z,147.30033
2023-01-22T01:29:41.150Z,145.30719
2023-01-22T01:34:43.034Z,142.07074
2023-01-22T01:39:44.819Z,140.17834
2023-01-22T01:44:47.005Z,156.41379
2023-01-22T01:49:48.981Z,152.81356
2023-01-22T01:54:51.026Z,154.23891
2023-01-22T01:59:52.764Z,155.68385
2023-01-22T02:04:54.271Z,160.14035
2023-01-22T02:09:55.749Z,160.90141
2023-01-22T02:14:57.592Z,157.14879
2023-01-22T02:19:59.093Z,156.41379
2023-01-22T02:25:00.572Z,152.81356
2023-01-22T02:30:02.437Z,154.23891
2023-01-22T02:35:03.913Z,150.71141
2023-01-22T02:40:05.521Z,150.02007
2023-01-22T02:45:07.670Z,149.33333
2023-01-22T02:50:09.120Z,150.02007
2023-01-22T02:55:10.766Z,150.02007
2023-01-22T03:00:12.294Z,154.23891
2023-01-22T03:05:14.124Z,150.71141
2023-01-22T03:10:15.778Z,140.80511
2023-01-22T03:15:17.508Z,150.02007
2023-01-22T03:20:19.547Z,145.30719
2023-01-22T03:25:21.112Z,143.35275
2023-01-22T03:30:23.116Z,144
2023-01-22T03:35:24.673Z,145.30719
2023-01-22T03:40:26.166Z,146.63158
2023-01-22T03:45:27.838Z,144
2023-01-22T03:50:29.356Z,148.65116
2023-01-22T03:55:30.846Z,151.40741
2023-01-22T04:00:32.976Z,153.52381
2023-01-22T04:05:34.473Z,153.52381
2023-01-22T04:10:36.038Z,157.88889
2023-01-22T04:15:38.088Z,160.90141
2023-01-22T04:20:39.875Z,155.68385
2023-01-22T04:25:41.831Z,155.68385
2023-01-22T04:30:44.070Z,156.41379
2023-01-22T04:35:45.986Z,158.63415
2023-01-22T04:40:47.887Z,169.64103
2023-01-22T04:45:49.642Z,170.47059
2023-01-22T04:50:51.501Z,174.71161
2023-01-22T04:55:53.318Z,170.47059
2023-01-22T05:00:54.916Z,162.43972
2023-01-22T05:05:56.950Z,163.21708
2023-01-22T05:10:58.805Z,178.22053
2023-01-22T05:16:00.547Z,172.99628
2023-01-22T05:21:02.265Z,165.58273
2023-01-22T05:26:03.780Z,170.47059
2023-01-22T05:31:05.545Z,168
2023-01-22T05:36:07.027Z,180.92308
2023-01-22T05:41:08.832Z,188.44444
2023-01-22T05:46:11.529Z,181.83784
2023-01-22T05:51:13.363Z,194.4065
2023-01-22T05:56:15.261Z,205.01695
2023-01-22T06:01:17.227Z,210.66667
2023-01-22T06:06:18.679Z,199.60166
2023-01-22T06:11:20.355Z,191.38956
2023-01-22T06:16:22.106Z,199.60166
2023-01-22T06:21:23.620Z,240.15385
2023-01-22T06:26:25.317Z,211.82609
2023-01-22T06:31:27.138Z,211.82609
2023-01-22T06:36:28.771Z,255.11111
2023-01-22T06:41:30.415Z,252
2023-01-22T06:46:32.509Z,256.69036
2023-01-22T06:51:34.454Z,256.69036
2023-01-22T06:56:36.113Z,263.17098
2023-01-22T07:01:37.929Z,302.13953
2023-01-22T07:06:39.450Z,280.61202
2023-01-22T07:11:40.954Z,271.65957
2023-01-22T07:16:42.738Z,298.02299
2023-01-22T07:21:44.320Z,304.23392
2023-01-22T07:26:46.056Z,371.77778
2023-01-22T07:31:49.783Z,429.03937
2023-01-22T07:36:51.997Z,414.22901
2023-01-22T07:41:53.909Z,484.35088
2023-01-22T07:46:56.079Z,425.25
2023-01-22T07:51:57.812Z,444.81301
2023-01-22T08:02:05.350Z,489.13274
2023-01-22T08:07:06.842Z,714
2023-01-22T08:12:08.699Z,519.70093
2023-01-22T08:17:10.711Z,644
2023-01-22T08:22:12.625Z,704.49383
2023-01-22T08:27:14.541Z,668.70588
2023-01-22T08:32:16.652Z,765.33333
2023-01-22T08:37:18.595Z,1024.70175
2023-01-22T08:42:20.121Z,1227.33333
2023-01-22T08:47:21.899Z,1810.66667
2023-01-22T08:52:23.675Z,1064
2023-01-22T08:57:25.233Z,1655.11111
2023-01-22T09:02:26.898Z,1312.88889
2023-01-22T09:07:28.612Z,1201.14286
2023-01-22T09:12:30.171Z,1201.14286
2023-01-22T09:17:31.833Z,1997.33333
2023-01-22T09:22:33.455Z,3794
2023-01-22T09:27:35.063Z,2068.13793
2023-01-22T09:32:36.909Z,2744
2023-01-22T09:37:38.620Z,15344
2023-01-22T09:42:40.237Z,5077.33333
2023-01-22T09:47:42.247Z,5544
2023-01-22T09:52:44.064Z,6104
2023-01-22T09:57:45.541Z,8744
2023-01-22T10:02:47.249Z,7644
2023-01-22T10:07:48.883Z,7644
2023-01-22T10:12:50.385Z,8744
2023-01-22T10:17:52.483Z,8744
2023-01-22T10:22:54.600Z,6788.44444
2023-01-22T10:27:56.371Z,12264
2023-01-22T10:32:58.145Z,8744
2023-01-22T10:37:59.654Z,15344
2023-01-22T10:43:01.132Z,5544
2023-01-22T10:48:02.968Z,10210.66667
2023-01-22T10:53:04.540Z,15344
2023-01-22T10:58:06.037Z,30744
2023-01-22T11:03:07.923Z,30744
2023-01-22T11:08:09.344Z,12264
2023-01-22T11:13:10.756Z,6788.44444
2023-01-22T11:18:12.530Z,20477.33333
2023-01-22T11:23:13.997Z,20477.33333
2023-01-22T11:28:15.589Z,15344
2023-01-22T11:33:17.521Z,61544
2023-01-22T11:38:19.277Z,30744
2023-01-22T11:43:20.741Z,61544
2023-01-22T11:48:22.526Z,61544
2023-01-22T11:53:23.947Z,61544
2023-01-22T11:58:25.443Z,61544
2023-01-22T12:03:27.020Z,61544
2023-01-22T12:08:28.479Z,30744
2023-01-22T12:13:30.044Z,12264
2023-01-22T12:18:31.710Z,7644
2023-01-22T12:23:33.231Z,4050.66667
2023-01-22T12:28:34.869Z,3567.52941
2023-01-22T12:33:36.329Z,4050.66667
2023-01-22T12:38:37.936Z,5544
2023-01-22T12:43:39.401Z,1410.66667
2023-01-22T12:48:41.400Z,906.5
2023-01-22T12:53:42.860Z,921.77778
2023-01-22T12:58:44.795Z,1024.70175
2023-01-22T13:03:46.388Z,1869
2023-01-22T13:08:48.308Z,2144
2023-01-22T13:13:50.283Z,4682.46154
2023-01-22T13:18:52.370Z,4344
2023-01-22T13:23:54.206Z,8744
2023-01-22T13:28:56.163Z,15344
2023-01-22T13:33:58.232Z,15344
2023-01-22T13:39:00.108Z,61544
2023-01-22T13:44:02.073Z,30744
2023-01-22T13:49:04.162Z,61544
2023-01-22T13:54:06.015Z,61544
2023-01-22T13:59:07.786Z,0
2023-01-22T14:04:09.683Z,0
2023-01-22T14:09:11.501Z,61544
2023-01-22T14:14:13.293Z,0
2023-01-22T14:19:15.294Z,0
2023-01-22T14:24:17.138Z,0
2023-01-22T14:29:18.917Z,0
2023-01-22T14:34:20.955Z,0
2023-01-22T14:39:22.396Z,0
2023-01-22T14:44:23.991Z,0
2023-01-22T14:49:25.756Z,0
2023-01-22T14:54:27.520Z,0
2023-01-22T14:59:29.055Z,0
2023-01-22T15:04:30.612Z,0
2023-01-22T15:09:32.194Z,0
2023-01-22T15:14:33.741Z,0
2023-01-22T15:19:41.231Z,0
2023-01-22T15:24:43.333Z,0
2023-01-22T15:29:45.098Z,0
2023-01-22T15:34:46.947Z,0
2023-01-22T15:39:48.708Z,0
2023-01-22T15:44:50.489Z,0
2023-01-22T15:49:52.478Z,0
2023-01-22T15:54:54.548Z,0
2023-01-22T15:59:56.471Z,0
2023-01-22T16:04:58.585Z,0
2023-01-22T16:10:00.437Z,0
2023-01-22T16:15:02.229Z,0
2023-01-22T16:20:04.197Z,0
2023-01-22T16:25:06.175Z,30744
2023-01-22T16:30:08.187Z,15344
2023-01-22T16:35:10.198Z,15344
2023-01-22T16:40:11.990Z,12264
2023-01-22T16:45:13.749Z,4050.66667
2023-01-22T16:50:15.454Z,1704
2023-01-22T16:55:16.951Z,2144
2023-01-22T17:00:19.269Z,1997.33333
2023-01-22T17:05:21.535Z,1254.6383
2023-01-22T17:10:23.032Z,1523.48718
2023-01-22T17:15:24.531Z,1344
2023-01-22T17:20:26.302Z,1376.55814
2023-01-22T17:25:27.855Z,891.69231
2023-01-22T17:30:29.617Z,668.70588
2023-01-22T17:35:31.601Z,572.57143
2023-01-22T17:40:33.392Z,519.70093
2023-01-22T17:45:35.042Z,324.24691
2023-01-22T17:50:37.146Z,312.86228
2023-01-22T17:55:39.089Z,308.49704
2023-01-22T18:00:40.731Z,417.84615
2023-01-22T18:05:42.709Z,306.35294
2023-01-22T18:10:44.612Z,440.77419
2023-01-22T18:15:46.639Z,572.57143
2023-01-22T18:20:48.853Z,579.05155
2023-01-22T18:25:50.635Z,592.42105
2023-01-22T18:30:52.584Z,620.92308
2023-01-22T18:35:54.694Z,592.42105
2023-01-22T18:40:56.516Z,652.04598
2023-01-22T18:45:58.163Z,572.57143
2023-01-22T18:51:00.197Z,714
2023-01-22T18:56:02.059Z,652.04598
2023-01-22T19:01:03.868Z,652.04598
2023-01-22T19:06:05.805Z,628.44444
2023-01-22T19:11:07.850Z,660.27907
2023-01-22T19:16:09.794Z,606.36559
2023-01-22T19:21:11.815Z,606.36559
2023-01-22T19:26:13.615Z,585.66667
2023-01-22T19:31:15.383Z,530.66667
2023-01-22T19:36:17.589Z,530.66667
2023-01-22T19:41:19.085Z,547.92157
2023-01-22T19:46:20.933Z,457.33333
2023-01-22T19:51:23.004Z,489.13274
2023-01-22T19:56:24.548Z,461.64706
2023-01-22T20:01:26.235Z,374.76923
2023-01-22T20:06:28.185Z,365.91781
2023-01-22T20:11:29.867Z,321.91411
2023-01-22T20:16:31.572Z,292.0226
2023-01-22T20:21:33.275Z,278.78261
2023-01-22T20:26:34.844Z,253.54774
2023-01-22T20:31:36.379Z,245.96078
2023-01-22T20:36:37.956Z,243.02913
2023-01-22T20:41:39.404Z,227.87097
2023-01-22T20:46:41.086Z,227.87097
2023-01-22T20:51:42.854Z,233.20188
2023-01-22T20:56:44.461Z,231.85047
2023-01-22T21:01:46.147Z,238.73684
2023-01-22T21:06:48.388Z,231.85047
2023-01-22T21:11:49.894Z,224
2023-01-22T21:16:51.692Z,219
2023-01-22T21:27:04.023Z,198.54545
2023-01-22T21:32:05.728Z,211.82609
2023-01-22T21:37:07.274Z,211.82609
2023-01-22T21:42:09.080Z,220.23318
2023-01-22T21:47:11.194Z,238.73684
2023-01-22T21:52:12.737Z,247.44828
2023-01-22T21:57:14.510Z,252
2023-01-22T22:02:16.610Z,244.4878
2023-01-22T22:07:18.597Z,231.85047
2023-01-22T22:12:20.469Z,247.44828
2023-01-22T22:17:22.343Z,261.52577
2023-01-22T22:22:23.810Z,282.46154
2023-01-22T22:27:27.671Z,286.22222
2023-01-22T22:32:29.304Z,268.21053
2023-01-22T22:37:30.921Z,264.83333
2023-01-22T22:42:32.365Z,261.52577
2023-01-22T22:47:34.073Z,255.11111
2023-01-22T22:52:35.590Z,245.96078
2023-01-22T22:57:37.685Z,234.56604
2023-01-22T23:02:39.430Z,226.56881
2023-01-22T23:07:41.111Z,211.82609
2023-01-22T23:12:43.155Z,203.91561
2023-01-22T23:17:44.929Z,200.66667
2023-01-22T23:22:46.693Z,206.12766
2023-01-22T23:27:49.594Z,195.42857
2023-01-22T23:32:51.453Z,194.4065
2023-01-22T23:37:53.259Z,187.47826
2023-01-22T23:42:54.942Z,184.625
2023-01-22T23:47:56.831Z,187.47826
2023-01-22T23:52:58.594Z,188.44444
2023-01-22T23:58:01.070Z,193.39271
